createdAt,value
2022-11-01T00:02:15.868Z,97932.95
2022-11-01T00:04:43.761Z,97931.84
2022-11-01T00:07:11.561Z,97925.03
2022-11-01T00:09:39.378Z,97927.80
2022-11-01T00:12:07.152Z,97923.98
2022-11-01T00:14:34.940Z,97922.48
2022-11-01T00:17:03.231Z,97919.05
2022-11-01T00:19:33.821Z,97918.52
2022-11-01T00:22:02.385Z,97910.11
2022-11-01T00:24:31.707Z,97907.19
2022-11-01T00:27:00.230Z,97905.98
2022-11-01T00:29:28.084Z,97899.95
2022-11-01T00:31:55.878Z,97889.91
2022-11-01T00:34:23.719Z,97887.80
2022-11-01T00:36:51.467Z,97884.61
2022-11-01T00:39:19.309Z,97885.82
2022-11-01T00:41:47.281Z,97887.41
2022-11-01T00:44:15.045Z,97885.80
2022-11-01T00:46:42.840Z,97884.67
2022-11-01T00:49:10.661Z,97887.69
2022-11-01T00:51:38.438Z,97885.91
2022-11-01T00:54:06.415Z,97890.37
2022-11-01T00:56:34.281Z,97895.77
2022-11-01T00:59:02.205Z,97901.19
2022-11-01T01:01:32.609Z,97903.02
2022-11-01T01:04:00.719Z,97891.81
2022-11-01T01:06:28.478Z,97882.52
2022-11-01T01:09:00.520Z,97871.91
2022-11-01T01:11:29.117Z,97869.50
2022-11-01T01:14:05.624Z,97873.02
2022-11-01T01:16:36.206Z,97885.55
2022-11-01T01:19:04.385Z,97883.39
2022-11-01T01:21:38.173Z,97873.71
2022-11-01T01:24:06.286Z,97858.70
2022-11-01T01:26:34.013Z,97855.58
2022-11-01T01:29:01.862Z,97849.88
2022-11-01T01:31:29.828Z,97850.79
2022-11-01T01:33:58.591Z,97851.35
2022-11-01T01:36:26.300Z,97850.09
2022-11-01T01:38:54.092Z,97855.81
2022-11-01T01:41:40.602Z,97847.38
2022-11-01T01:44:46.584Z,97847.92
2022-11-01T01:47:28.188Z,97848.21
2022-11-01T01:50:22.300Z,97846.92
2022-11-01T01:53:01.820Z,97838.88
2022-11-01T01:55:41.776Z,97836.70
2022-11-01T01:58:12.069Z,97844.37
2022-11-01T02:00:42.832Z,97851.90
2022-11-01T02:03:12.539Z,97848.88
2022-11-01T02:05:54.073Z,97842.36
2022-11-01T02:08:28.105Z,97836.14
2022-11-01T02:11:05.827Z,97829.27
2022-11-01T02:13:34.045Z,97831.52
2022-11-01T02:16:01.663Z,97831.78
2022-11-01T02:18:39.999Z,97830.02
2022-11-01T02:21:30.732Z,97830.48
2022-11-01T02:24:23.282Z,97833.53
2022-11-01T02:27:00.425Z,97842.52
2022-11-01T02:29:51.037Z,97839.23
2022-11-01T02:32:40.782Z,97843.51
2022-11-01T02:35:22.932Z,97839.39
2022-11-01T02:37:53.597Z,97838.60
2022-11-01T02:40:29.247Z,97837.60
2022-11-01T02:43:02.903Z,97840.10
2022-11-01T02:45:41.399Z,97838.77
2022-11-01T02:48:09.272Z,97833.27
2022-11-01T02:50:45.656Z,97827.20
2022-11-01T02:53:13.863Z,97830.33
2022-11-01T02:55:41.783Z,97828.85
2022-11-01T02:58:20.064Z,97828.20
2022-11-01T03:00:47.962Z,97830.45
2022-11-01T03:03:17.792Z,97826.91
2022-11-01T03:05:48.587Z,97822.58
2022-11-01T03:08:25.866Z,97820.98
2022-11-01T03:11:02.872Z,97826.96
2022-11-01T03:14:20.201Z,97825.61
2022-11-01T03:17:00.550Z,97824.45
2022-11-01T03:19:52.566Z,97821.91
2022-11-01T03:22:28.813Z,97822.46
2022-11-01T03:25:31.804Z,97825.73
2022-11-01T03:28:04.565Z,97828.11
2022-11-01T03:30:34.442Z,97833.85
2022-11-01T03:33:02.477Z,97830.10
2022-11-01T03:35:40.553Z,97829.42
2022-11-01T03:38:13.809Z,97822.73
2022-11-01T03:40:47.144Z,97823.74
2022-11-01T03:43:17.698Z,97827.52
2022-11-01T03:45:45.699Z,97829.27
2022-11-01T03:48:13.464Z,97826.72
2022-11-01T03:50:47.478Z,97827.19
2022-11-01T03:53:15.920Z,97822.27
2022-11-01T03:55:44.366Z,97817.30
2022-11-01T03:58:12.160Z,97813.17
2022-11-01T04:00:42.872Z,97810.73
2022-11-01T04:03:12.118Z,97810.11
2022-11-01T04:05:41.594Z,97810.48
2022-11-01T04:08:11.553Z,97810.67
2022-11-01T04:10:39.380Z,97811.15
2022-11-01T04:13:07.081Z,97811.41
2022-11-01T04:15:53.684Z,97809.83
2022-11-01T04:18:42.464Z,97804.54
2022-11-01T04:21:14.489Z,97803.20
2022-11-01T04:23:43.803Z,97797.55
2022-11-01T04:26:17.701Z,97793.48
2022-11-01T04:28:57.291Z,97787.31
2022-11-01T04:31:34.079Z,97782.23
2022-11-01T04:34:03.763Z,97784.71
2022-11-01T04:36:31.824Z,97783.26
2022-11-01T04:38:59.871Z,97780.10
2022-11-01T04:41:29.418Z,97791.74
2022-11-01T04:43:59.232Z,97790.93
2022-11-01T04:46:31.554Z,97783.13
2022-11-01T04:48:59.369Z,97780.45
2022-11-01T04:51:27.232Z,97780.36
2022-11-01T04:53:55.054Z,97779.48
2022-11-01T04:56:22.865Z,97780.45
2022-11-01T04:58:50.705Z,97778.05
2022-11-01T05:01:18.599Z,97779.94
2022-11-01T05:03:48.720Z,97782.23
2022-11-01T05:06:16.528Z,97778.48
2022-11-01T05:08:44.495Z,97775.56
2022-11-01T05:11:12.400Z,97767.39
2022-11-01T05:13:40.180Z,97764.71
2022-11-01T05:16:19.286Z,97772.35
2022-11-01T05:18:48.438Z,97775.19
2022-11-01T05:21:16.453Z,97777.70
2022-11-01T05:23:44.264Z,97777.58
2022-11-01T05:26:11.953Z,97784.23
2022-11-01T05:28:39.763Z,97786.77
2022-11-01T05:31:07.718Z,97784.27
2022-11-01T05:33:35.477Z,97781.97
2022-11-01T05:36:03.459Z,97780.39
2022-11-01T05:38:31.260Z,97777.98
2022-11-01T05:41:02.684Z,97777.42
2022-11-01T05:43:30.693Z,97775.91
2022-11-01T05:45:58.556Z,97776.38
2022-11-01T05:48:26.392Z,97778.63
2022-11-01T05:50:54.224Z,97778.08
2022-11-01T05:53:22.950Z,97771.80
2022-11-01T05:55:51.111Z,97769.65
2022-11-01T05:58:18.810Z,97777.95
2022-11-01T06:00:46.555Z,97783.23
2022-11-01T06:03:14.404Z,97784.81
2022-11-01T06:05:42.096Z,97786.38
2022-11-01T06:08:09.841Z,97791.65
2022-11-01T06:10:37.633Z,97793.52
2022-11-01T06:13:05.742Z,97788.21
2022-11-01T06:15:37.120Z,97785.02
2022-11-01T06:18:08.185Z,97778.15
2022-11-01T06:20:39.310Z,97779.96
2022-11-01T06:23:11.468Z,97781.11
2022-11-01T06:25:39.178Z,97772.73
2022-11-01T06:28:06.961Z,97768.30
2022-11-01T06:30:34.755Z,97758.89
2022-11-01T06:33:02.932Z,97755.93
2022-11-01T06:35:30.893Z,97757.31
2022-11-01T06:38:09.371Z,97758.28
2022-11-01T06:40:37.781Z,97758.44
2022-11-01T06:43:06.355Z,97763.98
2022-11-01T06:45:34.333Z,97777.30
2022-11-01T06:48:02.415Z,97780.66
2022-11-01T06:50:30.705Z,97781.96
2022-11-01T06:52:59.749Z,97784.39
2022-11-01T06:55:28.928Z,97780.45
2022-11-01T06:57:59.645Z,97784.65
2022-11-01T07:00:29.137Z,97788.72
2022-11-01T07:03:01.970Z,97789.16
2022-11-01T07:05:32.864Z,97790.85
2022-11-01T07:08:06.277Z,97787.56
2022-11-01T07:10:34.362Z,97787.63
2022-11-01T07:13:03.819Z,97788.86
2022-11-01T07:15:32.118Z,97791.72
2022-11-01T07:18:02.543Z,97798.23
2022-11-01T07:20:32.312Z,97795.08
2022-11-01T07:23:05.739Z,97789.80
2022-11-01T07:25:33.803Z,97792.88
2022-11-01T07:28:01.770Z,97792.03
2022-11-01T07:30:29.483Z,97787.73
2022-11-01T07:32:59.506Z,97784.36
2022-11-01T07:35:27.683Z,97783.50
2022-11-01T07:38:01.991Z,97784.73
2022-11-01T07:40:32.740Z,97786.89
2022-11-01T07:43:01.268Z,97788.95
2022-11-01T07:45:31.343Z,97786.80
2022-11-01T07:48:02.695Z,97783.95
2022-11-01T07:50:32.553Z,97775.79
2022-11-01T07:53:05.853Z,97770.77
2022-11-01T07:55:35.285Z,97764.98
2022-11-01T07:58:03.983Z,97763.27
2022-11-01T08:03:07.114Z,97763.08
2022-11-01T08:05:35.887Z,97767.51
2022-11-01T08:08:04.880Z,97776.42
2022-11-01T08:10:34.185Z,97782.38
2022-11-01T08:13:09.021Z,97786.86
2022-11-01T08:15:36.768Z,97797.00
2022-11-01T08:18:04.971Z,97803.54
2022-11-01T08:20:33.191Z,97812.83
2022-11-01T08:23:01.161Z,97816.06
2022-11-01T08:25:29.578Z,97806.79
2022-11-01T08:28:22.805Z,97796.77
2022-11-01T08:30:50.990Z,97794.09
2022-11-01T08:33:18.645Z,97799.23
2022-11-01T08:35:50.455Z,97806.96
2022-11-01T08:38:19.389Z,97816.89
2022-11-01T08:40:48.194Z,97803.73
2022-11-01T08:43:16.991Z,97797.11
2022-11-01T08:45:44.942Z,97801.66
2022-11-01T08:48:13.350Z,97809.69
2022-11-01T08:50:41.117Z,97804.08
2022-11-01T08:53:14.130Z,97794.05
2022-11-01T08:55:42.166Z,97791.88
2022-11-01T08:58:10.185Z,97789.48
2022-11-01T09:00:38.023Z,97791.66
2022-11-01T09:03:05.958Z,97785.52
2022-11-01T09:05:34.595Z,97779.27
2022-11-01T09:08:03.164Z,97790.80
2022-11-01T09:10:31.345Z,97792.48
2022-11-01T09:13:00.723Z,97801.61
2022-11-01T09:15:29.070Z,97807.97
2022-11-01T09:17:56.913Z,97802.23
2022-11-01T09:20:24.750Z,97800.10
2022-11-01T09:22:52.785Z,97800.86
2022-11-01T09:25:20.709Z,97798.25
2022-11-01T09:27:58.022Z,97803.21
2022-11-01T09:30:26.258Z,97811.38
2022-11-01T09:32:54.128Z,97809.63
2022-11-01T09:35:24.023Z,97811.81
2022-11-01T09:38:00.516Z,97808.09
2022-11-01T09:40:33.081Z,97807.02
2022-11-01T09:43:02.097Z,97811.13
2022-11-01T09:45:35.511Z,97811.77
2022-11-01T09:48:05.821Z,97814.48
2022-11-01T09:50:37.783Z,97816.98
2022-11-01T09:53:14.422Z,97810.16
2022-11-01T09:55:51.657Z,97811.92
2022-11-01T09:58:42.286Z,97811.44
2022-11-01T10:01:31.658Z,97814.91
2022-11-01T10:04:25.100Z,97820.54
2022-11-01T10:07:15.948Z,97816.45
2022-11-01T10:10:04.951Z,97823.16
2022-11-01T10:12:59.549Z,97827.33
2022-11-01T10:15:51.491Z,97822.60
2022-11-01T10:18:29.683Z,97825.52
2022-11-01T10:21:00.908Z,97827.98
2022-11-01T10:23:40.601Z,97828.95
2022-11-01T10:26:13.956Z,97824.45
2022-11-01T10:28:49.635Z,97818.77
2022-11-01T10:31:22.379Z,97818.58
2022-11-01T10:34:02.615Z,97827.05
2022-11-01T10:36:39.197Z,97824.61
2022-11-01T10:39:58.948Z,97824.68
2022-11-01T10:42:30.074Z,97825.18
2022-11-01T10:45:08.881Z,97828.65
2022-11-01T10:47:36.782Z,97824.77
2022-11-01T10:50:08.199Z,97820.50
2022-11-01T10:53:04.192Z,97827.35
2022-11-01T10:55:41.617Z,97828.25
2022-11-01T10:58:21.634Z,97825.02
2022-11-01T11:00:50.631Z,97828.29
2022-11-01T11:03:26.255Z,97825.67
2022-11-01T11:05:56.616Z,97816.56
2022-11-01T11:08:25.394Z,97812.42
2022-11-01T11:10:53.349Z,97815.18
2022-11-01T11:13:24.432Z,97814.27
2022-11-01T11:16:02.373Z,97813.13
2022-11-01T11:18:39.126Z,97815.86
2022-11-01T11:21:09.904Z,97816.02
2022-11-01T11:23:44.325Z,97814.81
2022-11-01T11:26:19.701Z,97814.42
2022-11-01T11:28:54.930Z,97808.85
2022-11-01T11:31:28.787Z,97810.48
2022-11-01T11:34:27.374Z,97808.25
2022-11-01T11:37:00.789Z,97806.71
2022-11-01T11:39:35.851Z,97808.70
2022-11-01T11:42:24.613Z,97803.84
2022-11-01T11:45:14.661Z,97804.95
2022-11-01T11:47:43.106Z,97807.63
2022-11-01T11:50:32.561Z,97808.02
2022-11-01T11:53:03.777Z,97807.11
2022-11-01T11:55:35.954Z,97809.42
2022-11-01T11:58:06.202Z,97807.45
2022-11-01T12:00:38.133Z,97807.80
2022-11-01T12:03:08.152Z,97808.97
2022-11-01T12:05:35.867Z,97808.16
2022-11-01T12:08:04.793Z,97815.02
2022-11-01T12:10:32.540Z,97815.96
2022-11-01T12:13:02.814Z,97816.08
2022-11-01T12:15:41.139Z,97815.45
2022-11-01T12:18:16.540Z,97818.55
2022-11-01T12:20:50.873Z,97819.21
2022-11-01T12:23:28.845Z,97817.80
2022-11-01T12:26:01.773Z,97818.27
2022-11-01T12:28:55.299Z,97821.27
2022-11-01T12:31:25.478Z,97830.95
2022-11-01T12:34:06.592Z,97828.96
2022-11-01T12:36:43.828Z,97825.50
2022-11-01T12:39:40.447Z,97822.53
2022-11-01T12:42:12.236Z,97822.77
2022-11-01T12:44:48.303Z,97824.90
2022-11-01T12:47:44.368Z,97831.90
2022-11-01T12:50:20.228Z,97836.70
2022-11-01T12:52:58.725Z,97843.76
2022-11-01T12:55:39.696Z,97849.09
2022-11-01T12:58:28.937Z,97852.81
2022-11-01T13:01:40.161Z,97848.86
2022-11-01T13:04:31.646Z,97852.27
2022-11-01T13:07:25.107Z,97857.52
2022-11-01T13:10:03.160Z,97862.14
2022-11-01T13:12:44.078Z,97866.58
2022-11-01T13:15:29.563Z,97871.98
2022-11-01T13:18:16.228Z,97872.81
2022-11-01T13:20:54.586Z,97880.65
2022-11-01T13:23:57.735Z,97878.75
2022-11-01T13:26:54.890Z,97885.16
2022-11-01T13:29:38.423Z,97883.23
2022-11-01T13:32:21.496Z,97886.02
2022-11-01T13:35:17.523Z,97884.92
2022-11-01T13:37:58.477Z,97892.20
2022-11-01T13:40:37.347Z,97894.03
2022-11-01T13:43:17.047Z,97897.48
2022-11-01T13:46:07.819Z,97904.40
2022-11-01T13:49:06.043Z,97905.40
2022-11-01T13:52:02.657Z,97906.40
2022-11-01T13:54:35.678Z,97908.92
2022-11-01T13:57:15.934Z,97913.63
2022-11-01T14:00:06.946Z,97917.88
2022-11-01T14:02:49.452Z,97920.70
2022-11-01T14:05:17.227Z,97918.55
2022-11-01T14:07:44.801Z,97921.29
2022-11-01T14:10:19.103Z,97920.05
2022-11-01T14:13:05.658Z,97924.77
2022-11-01T14:16:19.598Z,97928.07
2022-11-01T14:19:02.856Z,97927.58
2022-11-01T14:21:51.683Z,97932.62
2022-11-01T14:24:29.463Z,97933.11
2022-11-01T14:27:20.295Z,97930.16
2022-11-01T14:29:52.507Z,97934.79
2022-11-01T14:32:23.425Z,97933.22
2022-11-01T14:35:25.390Z,97933.42
2022-11-01T14:37:57.265Z,97937.75
2022-11-01T14:40:41.590Z,97938.48
2022-11-01T14:43:27.994Z,97940.52
2022-11-01T14:46:04.201Z,97944.70
2022-11-01T14:49:20.072Z,97949.48
2022-11-01T14:51:56.759Z,97956.49
2022-11-01T14:54:56.349Z,97955.58
2022-11-01T14:57:29.479Z,97954.83
2022-11-01T14:59:58.622Z,97950.71
2022-11-01T15:02:28.409Z,97955.63
2022-11-01T15:05:00.904Z,97958.76
2022-11-01T15:07:35.649Z,97961.59
2022-11-01T15:10:09.705Z,97958.64
2022-11-01T15:12:47.904Z,97960.45
2022-11-01T15:15:24.784Z,97968.12
2022-11-01T15:17:58.551Z,97963.89
2022-11-01T15:20:31.993Z,97966.33
2022-11-01T15:22:59.893Z,97978.71
2022-11-01T15:25:27.897Z,97976.77
2022-11-01T15:27:57.245Z,97983.34
2022-11-01T15:30:30.667Z,97983.48
2022-11-01T15:33:25.990Z,97985.16
2022-11-01T15:35:59.643Z,97979.97
2022-11-01T15:38:28.816Z,97976.39
2022-11-01T15:40:56.794Z,97980.02
2022-11-01T15:43:29.895Z,97976.19
2022-11-01T15:46:01.196Z,97981.20
2022-11-01T15:48:38.230Z,97975.52
2022-11-01T15:51:09.416Z,97966.88
2022-11-01T15:53:38.919Z,97957.48
2022-11-01T15:56:18.145Z,97956.54
2022-11-01T15:58:48.765Z,97952.12
2022-11-01T16:01:22.184Z,97955.92
2022-11-01T16:04:01.762Z,97966.56
2022-11-01T16:06:52.936Z,97975.45
2022-11-01T16:09:45.696Z,97977.96
2022-11-01T16:12:27.754Z,97970.11
2022-11-01T16:14:57.350Z,97967.08
2022-11-01T16:17:33.696Z,97969.71
2022-11-01T16:20:05.116Z,97973.05
2022-11-01T16:22:38.087Z,97968.90
2022-11-01T16:25:13.109Z,97966.33
2022-11-01T16:28:07.568Z,97969.43
2022-11-01T16:30:53.311Z,97965.95
2022-11-01T16:33:36.714Z,97973.87
2022-11-01T16:36:35.793Z,97974.65
2022-11-01T16:39:31.416Z,97967.05
2022-11-01T16:42:00.287Z,97965.28
2022-11-01T16:44:28.262Z,97968.21
2022-11-01T16:46:56.301Z,97964.80
2022-11-01T16:49:27.995Z,97972.71
2022-11-01T16:51:59.018Z,97972.20
2022-11-01T16:54:27.492Z,97975.52
2022-11-01T16:56:58.635Z,97974.44
2022-11-01T16:59:38.707Z,97979.16
2022-11-01T17:02:20.216Z,97984.85
2022-11-01T17:04:52.168Z,97991.57
2022-11-01T17:07:21.057Z,97990.88
2022-11-01T17:09:49.018Z,97989.00
2022-11-01T17:12:16.943Z,97996.59
2022-11-01T17:14:46.355Z,98000.85
2022-11-01T17:17:17.815Z,98006.10
2022-11-01T17:19:50.412Z,98014.39
2022-11-01T17:22:21.585Z,98021.63
2022-11-01T17:24:50.166Z,98025.21
2022-11-01T17:27:19.312Z,98026.66
2022-11-01T17:29:47.749Z,98027.84
2022-11-01T17:32:17.208Z,98029.05
2022-11-01T17:34:46.036Z,98031.54
2022-11-01T17:37:17.590Z,98035.04
2022-11-01T17:39:46.467Z,98030.60
2022-11-01T17:42:14.572Z,98030.73
2022-11-01T17:45:02.920Z,98030.02
2022-11-01T17:47:31.263Z,98030.69
2022-11-01T17:49:59.223Z,98032.65
2022-11-01T17:52:27.477Z,98040.89
2022-11-01T17:54:57.121Z,98038.21
2022-11-01T17:57:26.567Z,98042.14
2022-11-01T17:59:55.020Z,98045.89
2022-11-01T18:02:24.966Z,98052.91
2022-11-01T18:04:54.969Z,98052.09
2022-11-01T18:07:23.410Z,98053.23
2022-11-01T18:09:51.822Z,98048.57
2022-11-01T18:12:33.554Z,98053.98
2022-11-01T18:15:34.631Z,98057.89
2022-11-01T18:18:26.601Z,98058.67
2022-11-01T18:21:22.880Z,98062.84
2022-11-01T18:23:52.334Z,98067.93
2022-11-01T18:26:26.330Z,98065.33
2022-11-01T18:28:59.100Z,98060.59
2022-11-01T18:31:42.866Z,98058.91
2022-11-01T18:34:55.920Z,98059.80
2022-11-01T18:37:23.731Z,98060.61
2022-11-01T18:40:08.816Z,98063.91
2022-11-01T18:42:37.427Z,98055.92
2022-11-01T18:45:30.382Z,98057.36
2022-11-01T18:48:31.284Z,98058.86
2022-11-01T18:51:06.113Z,98060.36
2022-11-01T18:53:34.711Z,98064.44
2022-11-01T18:56:19.189Z,98062.19
2022-11-01T18:58:47.148Z,98057.49
2022-11-01T19:01:24.138Z,98059.25
2022-11-01T19:04:10.432Z,98059.45
2022-11-01T19:06:38.232Z,98067.27
2022-11-01T19:09:24.158Z,98066.13
2022-11-01T19:12:11.565Z,98069.47
2022-11-01T19:14:40.283Z,98068.81
2022-11-01T19:17:29.703Z,98070.27
2022-11-01T19:19:59.788Z,98073.23
2022-11-01T19:22:38.930Z,98076.34
2022-11-01T19:25:21.552Z,98079.16
2022-11-01T19:27:52.910Z,98085.59
2022-11-01T19:30:25.030Z,98083.74
2022-11-01T19:32:55.223Z,98083.58
2022-11-01T19:35:23.222Z,98077.04
2022-11-01T19:37:54.686Z,98077.55
2022-11-01T19:40:31.305Z,98076.80
2022-11-01T19:43:20.475Z,98071.23
2022-11-01T19:45:53.692Z,98071.70
2022-11-01T19:48:28.679Z,98069.86
2022-11-01T19:50:56.468Z,98071.30
2022-11-01T19:53:36.453Z,98063.77
2022-11-01T19:56:06.842Z,98065.13
2022-11-01T19:58:45.754Z,98066.21
2022-11-01T20:01:16.746Z,98073.99
2022-11-01T20:03:47.837Z,98074.70
2022-11-01T20:06:17.010Z,98080.42
2022-11-01T20:08:47.507Z,98082.56
2022-11-01T20:11:15.251Z,98087.06
2022-11-01T20:13:42.962Z,98089.54
2022-11-01T20:16:10.753Z,98093.94
2022-11-01T20:18:38.423Z,98095.67
2022-11-01T20:21:06.596Z,98094.53
2022-11-01T20:23:34.631Z,98096.27
2022-11-01T20:26:06.786Z,98093.79
2022-11-01T20:28:34.621Z,98102.55
2022-11-01T20:31:02.304Z,98106.08
2022-11-01T20:33:30.022Z,98107.58
2022-11-01T20:35:58.524Z,98103.47
2022-11-01T20:38:26.353Z,98105.92
2022-11-01T20:40:54.084Z,98104.56
2022-11-01T20:43:21.850Z,98103.94
2022-11-01T20:45:49.797Z,98106.08
2022-11-01T20:48:18.483Z,98109.39
2022-11-01T20:50:46.498Z,98120.43
2022-11-01T20:53:15.095Z,98125.74
2022-11-01T20:55:43.128Z,98133.49
2022-11-01T20:58:11.913Z,98145.58
2022-11-01T21:00:39.929Z,98154.08
2022-11-01T21:03:16.503Z,98153.91
2022-11-01T21:05:46.565Z,98149.64
2022-11-01T21:08:22.610Z,98146.45
2022-11-01T21:11:03.413Z,98151.02
2022-11-01T21:13:42.110Z,98150.29
2022-11-01T21:16:20.157Z,98150.85
2022-11-01T21:18:50.357Z,98153.00
2022-11-01T21:21:17.957Z,98155.86
2022-11-01T21:23:46.552Z,98155.55
2022-11-01T21:26:23.502Z,98147.19
2022-11-01T21:28:54.654Z,98152.91
2022-11-01T21:31:37.901Z,98154.69
2022-11-01T21:34:12.207Z,98156.66
2022-11-01T21:36:41.204Z,98157.20
2022-11-01T21:39:16.837Z,98165.73
2022-11-01T21:41:52.406Z,98164.64
2022-11-01T21:44:41.827Z,98160.63
2022-11-01T21:47:10.413Z,98150.66
2022-11-01T21:49:38.749Z,98146.35
2022-11-01T21:52:08.705Z,98144.45
2022-11-01T21:54:38.294Z,98143.77
2022-11-01T21:57:08.367Z,98141.27
2022-11-01T21:59:36.725Z,98141.67
2022-11-01T22:02:06.412Z,98133.85
2022-11-01T22:04:34.173Z,98127.93
2022-11-01T22:07:04.753Z,98123.41
2022-11-01T22:09:33.234Z,98123.58
2022-11-01T22:12:01.486Z,98123.80
2022-11-01T22:14:29.227Z,98125.11
2022-11-01T22:16:57.052Z,98125.45
2022-11-01T22:19:24.814Z,98132.41
2022-11-01T22:21:52.651Z,98127.59
2022-11-01T22:24:20.504Z,98120.23
2022-11-01T22:26:48.282Z,98117.80
2022-11-01T22:29:16.019Z,98120.70
2022-11-01T22:31:43.753Z,98124.02
2022-11-01T22:34:11.594Z,98114.27
2022-11-01T22:36:42.318Z,98109.34
2022-11-01T22:39:18.367Z,98109.08
2022-11-01T22:41:46.107Z,98112.95
2022-11-01T22:44:17.372Z,98115.35
2022-11-01T22:46:57.886Z,98119.77
2022-11-01T22:49:28.713Z,98123.31
2022-11-01T22:52:02.176Z,98121.14
2022-11-01T22:54:47.580Z,98118.80
2022-11-01T22:57:16.678Z,98117.48
2022-11-01T22:59:50.499Z,98118.90
2022-11-01T23:02:29.234Z,98118.13
2022-11-01T23:05:06.314Z,98119.61
2022-11-01T23:07:39.320Z,98120.65
2022-11-01T23:10:33.762Z,98118.54
2022-11-01T23:13:31.238Z,98117.91
2022-11-01T23:16:11.614Z,98117.77
2022-11-01T23:18:42.725Z,98111.66
2022-11-01T23:21:10.451Z,98115.80
2022-11-01T23:23:42.175Z,98112.66
2022-11-01T23:26:11.661Z,98113.23
2022-11-01T23:28:48.932Z,98114.27
2022-11-01T23:31:17.461Z,98108.36
2022-11-01T23:33:46.968Z,98108.23
2022-11-01T23:36:23.154Z,98111.62
2022-11-01T23:41:38.087Z,98118.89
2022-11-01T23:44:30.267Z,98110.88
2022-11-01T23:47:04.473Z,98107.55
2022-11-01T23:49:34.678Z,98109.09
2022-11-01T23:52:23.975Z,98104.92
2022-11-01T23:54:51.625Z,98108.70
2022-11-01T23:57:21.560Z,98103.86
2022-11-01T23:59:51.086Z,98096.35
